Time;durP1;ratioP1;P1;durP2;ratioP2;P2;SDS_P1;SDS_P2;PMS_P1;PMS_P2;Temp;Humidity;BMP_temperature;BMP_pressure;BME280_temperature;BME280_humidity;BME280_pressure;Samples;Min_cycle;Max_cycle;Signal;HPM_P1;HPM_P2
2023/02/27 00:02:23;;;;;;;7.30;2.50;;;0.20;99.90;;;;;;5080701;28;20229;-81
2023/02/27 00:04:50;;;;;;;4.28;3.10;;;0.20;99.90;;;;;;5078716;28;20194;-82
2023/02/27 00:07:17;;;;;;;5.25;3.75;;;0.30;1.00;;;;;;5078876;28;20223;-83
2023/02/27 00:09:44;;;;;;;5.25;3.10;;;0.30;1.00;;;;;;5078100;28;20212;-82
2023/02/27 00:12:11;;;;;;;6.22;2.70;;;0.40;1.00;;;;;;5078592;28;20223;-84
2023/02/27 00:14:38;;;;;;;5.43;2.80;;;0.40;1.00;;;;;;5075861;28;20200;-84
2023/02/27 00:17:05;;;;;;;4.30;3.00;;;0.40;1.00;;;;;;5078408;28;20264;-83
2023/02/27 00:19:33;;;;;;;5.45;3.22;;;0.40;1.00;;;;;;5080187;28;20206;-82
2023/02/27 00:22:00;;;;;;;3.83;2.60;;;0.40;1.00;;;;;;5080972;28;20651;-82
2023/02/27 00:24:27;;;;;;;4.30;3.15;;;0.40;1.00;;;;;;5080787;28;20281;-82
2023/02/27 00:26:54;;;;;;;3.85;3.05;;;0.40;99.90;;;;;;5080935;28;20234;-82
2023/02/27 00:29:20;;;;;;;6.07;3.22;;;0.50;1.00;;;;;;5079663;28;20213;-81
2023/02/27 00:31:47;;;;;;;4.93;2.65;;;0.50;1.00;;;;;;5078118;28;20780;-82
2023/02/27 00:34:14;;;;;;;7.35;3.33;;;0.40;1.00;;;;;;5080461;28;20212;-82
2023/02/27 00:36:42;;;;;;;4.53;2.42;;;0.40;1.00;;;;;;5077125;28;20206;-81
2023/02/27 00:39:09;;;;;;;5.18;4.05;;;0.30;99.90;;;;;;5078783;28;20209;-80
2023/02/27 00:41:36;;;;;;;4.90;3.00;;;0.30;99.90;;;;;;5080989;28;20224;-82
2023/02/27 00:44:03;;;;;;;6.13;2.47;;;0.30;99.90;;;;;;5080675;28;20243;-81
2023/02/27 00:46:29;;;;;;;3.85;2.55;;;0.30;99.90;;;;;;5080773;28;20290;-80
2023/02/27 00:48:56;;;;;;;4.63;2.63;;;0.20;99.90;;;;;;5080499;28;20294;-81
2023/02/27 00:51:23;;;;;;;5.68;2.67;;;0.30;99.90;;;;;;5079108;28;20713;-82
2023/02/27 00:53:51;;;;;;;7.03;2.47;;;0.30;99.90;;;;;;5079452;28;20735;-82
2023/02/27 00:56:18;;;;;;;5.03;3.15;;;0.20;99.90;;;;;;5080235;28;20195;-82
2023/02/27 00:58:45;;;;;;;4.95;3.17;;;0.30;1.00;;;;;;5080618;28;20694;-83
2023/02/27 01:01:11;;;;;;;4.28;2.85;;;0.30;99.90;;;;;;5079782;28;20236;-82
2023/02/27 01:03:38;;;;;;;5.43;2.78;;;0.30;99.90;;;;;;5080003;28;20265;-82
2023/02/27 01:06:05;;;;;;;3.40;2.20;;;0.20;99.90;;;;;;5080564;28;20229;-83
2023/02/27 01:08:32;;;;;;;6.72;2.35;;;0.20;1.00;;;;;;5079768;28;20203;-81
2023/02/27 01:11:00;;;;;;;8.05;3.00;;;0.20;63.40;;;;;;5079727;28;20228;-83
2023/02/27 01:13:27;;;;;;;3.60;2.30;;;0.20;27.40;;;;;;5069015;28;20207;-83
2023/02/27 01:15:54;;;;;;;5.32;2.60;;;0.20;99.90;;;;;;5067127;28;20272;-82
2023/02/27 01:18:21;;;;;;;5.65;2.67;;;0.20;99.90;;;;;;5080445;28;20298;-82
2023/02/27 01:20:52;;;;;;;4.28;2.20;;;0.10;1.00;;;;;;5079294;28;20687;-83
2023/02/27 01:23:18;;;;;;;6.63;3.00;;;0.20;1.00;;;;;;5079664;28;20299;-82
2023/02/27 01:25:47;;;;;;;3.40;1.95;;;0.10;99.90;;;;;;5079550;28;20734;-82
2023/02/27 01:28:15;;;;;;;4.40;2.05;;;0.10;1.00;;;;;;5080110;28;20226;-83
2023/02/27 01:30:43;;;;;;;3.72;2.22;;;0.20;99.90;;;;;;5079906;28;20211;-81
2023/02/27 01:33:09;;;;;;;5.22;2.28;;;0.20;99.90;;;;;;5080617;28;20198;-83
2023/02/27 01:35:36;;;;;;;4.95;2.70;;;0.20;3.50;;;;;;5079956;28;20231;-83
2023/02/27 01:38:03;;;;;;;5.50;2.67;;;0.20;1.00;;;;;;5080759;28;20213;-83
2023/02/27 01:40:30;;;;;;;2.88;2.08;;;0.10;99.90;;;;;;5079512;28;20201;-82
2023/02/27 01:42:57;;;;;;;5.82;3.25;;;0.10;99.90;;;;;;5080559;28;20226;-81
2023/02/27 01:45:31;;;;;;;6.57;3.00;;;0.10;1.00;;;;;;5083907;28;20209;-82
2023/02/27 01:48:08;;;;;;;5.75;3.20;;;0.10;1.00;;;;;;5083203;28;20225;-82
2023/02/27 01:50:37;;;;;;;6.10;2.92;;;0.00;21.30;;;;;;5082237;28;20213;-83
2023/02/27 01:53:05;;;;;;;6.03;2.60;;;0.00;1.00;;;;;;5082751;28;20676;-83
2023/02/27 01:55:38;;;;;;;4.10;2.60;;;0.00;99.90;;;;;;5083141;28;20267;-81
2023/02/27 01:58:06;;;;;;;4.45;3.05;;;0.00;99.90;;;;;;5083638;28;20195;-82
2023/02/27 02:00:34;;;;;;;4.93;2.50;;;-0.10;83.00;;;;;;5082587;28;20205;-82
2023/02/27 02:03:08;;;;;;;2.97;2.42;;;-0.10;99.90;;;;;;5083265;28;20787;-81
2023/02/27 02:05:35;;;;;;;5.05;2.58;;;-0.10;99.90;;;;;;5084115;28;20196;-82
2023/02/27 02:08:03;;;;;;;4.63;3.13;;;0.00;1.00;;;;;;5083479;28;20645;-81
2023/02/27 02:10:31;;;;;;;5.40;2.95;;;0.00;99.90;;;;;;5082312;28;20205;-83
2023/02/27 02:12:58;;;;;;;4.97;3.40;;;0.00;99.90;;;;;;5083075;28;20206;-83
2023/02/27 02:15:31;;;;;;;5.60;3.25;;;0.00;99.90;;;;;;5082429;28;20206;-82
2023/02/27 02:18:07;;;;;;;5.82;3.03;;;-0.10;1.00;;;;;;5080973;28;20196;-82
2023/02/27 02:21:10;;;;;;;5.30;2.80;;;-0.20;99.90;;;;;;5082960;28;20196;-82
2023/02/27 02:24:15;;;;;;;3.63;2.40;;;-0.20;99.90;;;;;;5083922;28;20240;-82
2023/02/27 02:26:50;;;;;;;6.07;2.83;;;-0.20;99.90;;;;;;5083372;28;20221;-82
2023/02/27 02:30:00;;;;;;;5.10;2.55;;;-0.20;99.90;;;;;;5082953;28;20213;-83
2023/02/27 02:32:56;;;;;;;4.28;2.20;;;-0.20;1.00;;;;;;5072029;28;20285;-83
2023/02/27 02:35:48;;;;;;;5.93;2.70;;;-0.30;99.90;;;;;;5082518;28;20210;-83
2023/02/27 02:38:41;;;;;;;3.70;2.60;;;-0.30;99.90;;;;;;5082802;28;20187;-83
2023/02/27 02:41:14;;;;;;;6.85;3.22;;;-0.40;99.90;;;;;;5062429;28;20225;-82
2023/02/27 02:43:53;;;;;;;5.00;2.97;;;-0.30;1.00;;;;;;5082543;28;20197;-82
2023/02/27 02:46:29;;;;;;;8.25;2.78;;;-0.40;1.00;;;;;;5082262;28;20205;-81
2023/02/27 02:49:05;;;;;;;4.40;2.80;;;-0.40;99.90;;;;;;5062089;28;20204;-82
2023/02/27 02:51:36;;;;;;;4.10;3.00;;;-0.40;99.90;;;;;;5061976;28;20236;-83
2023/02/27 02:54:09;;;;;;;5.07;2.80;;;-0.50;99.90;;;;;;5082485;28;20201;-83
2023/02/27 02:56:41;;;;;;;5.85;3.40;;;-0.50;99.90;;;;;;5080194;28;20187;-84
2023/02/27 02:59:13;;;;;;;4.97;2.70;;;-0.60;99.90;;;;;;5082499;28;20212;-82
2023/02/27 03:01:45;;;;;;;3.67;2.95;;;-0.60;99.90;;;;;;5082847;28;20236;-83
2023/02/27 03:04:15;;;;;;;6.43;3.72;;;-0.60;99.90;;;;;;5083742;28;20215;-82
2023/02/27 03:06:46;;;;;;;5.35;3.42;;;-0.60;99.90;;;;;;5082130;28;20219;-82
2023/02/27 03:09:19;;;;;;;5.20;2.88;;;-0.70;1.00;;;;;;5081809;28;20199;-82
2023/02/27 03:11:48;;;;;;;6.03;3.35;;;-0.80;1.00;;;;;;5067849;28;20232;-81
2023/02/27 03:14:25;;;;;;;4.85;3.25;;;-0.80;1.00;;;;;;5080931;28;20201;-81
2023/02/27 03:16:56;;;;;;;5.70;3.13;;;-0.80;99.90;;;;;;5082359;28;20203;-82
2023/02/27 03:19:26;;;;;;;6.85;3.30;;;-0.90;99.90;;;;;;5082138;28;20200;-82
2023/02/27 03:21:59;;;;;;;6.82;3.15;;;-0.90;1.00;;;;;;5081562;28;20232;-83
2023/02/27 03:24:31;;;;;;;4.75;3.40;;;-0.90;22.40;;;;;;5082623;28;20198;-82
2023/02/27 03:27:02;;;;;;;5.05;2.90;;;-0.90;41.40;;;;;;5081802;28;20215;-82
2023/02/27 03:29:33;;;;;;;5.28;3.05;;;-0.90;99.90;;;;;;5079114;28;20657;-82
2023/02/27 03:32:07;;;;;;;4.05;2.92;;;-0.90;99.90;;;;;;5080803;28;20225;-82
2023/02/27 03:34:35;;;;;;;4.78;3.70;;;-0.90;99.90;;;;;;5071816;28;20216;-82
2023/02/27 03:37:09;;;;;;;6.57;4.38;;;-0.90;42.90;;;;;;5081266;28;20203;-82
2023/02/27 03:39:46;;;;;;;6.28;3.15;;;-0.90;80.80;;;;;;5081126;28;20657;-83
2023/02/27 03:42:23;;;;;;;5.07;3.35;;;-0.90;99.90;;;;;;5081665;28;20221;-82
2023/02/27 03:44:56;;;;;;;6.10;3.83;;;-0.90;99.90;;;;;;5082423;28;20210;-82
2023/02/27 03:47:23;;;;;;;5.93;2.65;;;-1.00;99.90;;;;;;5067222;28;20214;-82
2023/02/27 03:49:51;;;;;;;4.78;3.00;;;-1.00;81.20;;;;;;5082697;28;20206;-82
2023/02/27 03:52:18;;;;;;;6.57;3.63;;;-1.00;1.00;;;;;;5083192;28;20227;-81
2023/02/27 03:54:51;;;;;;;5.20;2.80;;;-1.10;99.90;;;;;;5084411;28;20237;-81
2023/02/27 03:57:17;;;;;;;4.85;4.00;;;-1.00;99.90;;;;;;5083827;28;20194;-82
2023/02/27 03:59:44;;;;;;;5.53;3.60;;;-1.10;99.90;;;;;;5083447;28;20228;-81
2023/02/27 04:02:11;;;;;;;5.10;3.33;;;-1.10;99.90;;;;;;5081592;28;20296;-82
2023/02/27 04:04:39;;;;;;;7.97;2.80;;;-1.10;99.90;;;;;;5087136;28;20212;-82
2023/02/27 04:07:23;;;;;;;9.00;4.35;;;-1.10;99.90;;;;;;5085339;28;20213;-83
2023/02/27 04:10:13;;;;;;;6.40;3.42;;;-1.10;99.90;;;;;;5071492;28;20197;-82
2023/02/27 04:13:05;;;;;;;7.57;3.63;;;-1.10;99.90;;;;;;5074632;28;20297;-82
2023/02/27 04:15:43;;;;;;;5.70;3.35;;;-1.10;99.90;;;;;;5083042;28;20318;-82
2023/02/27 04:18:24;;;;;;;3.92;3.42;;;-1.20;99.90;;;;;;5080419;28;20185;-82
2023/02/27 04:20:56;;;;;;;6.82;4.28;;;-1.20;99.90;;;;;;5081335;28;20224;-82
2023/02/27 04:23:29;;;;;;;5.85;3.53;;;-1.20;99.90;;;;;;5081012;28;20209;-82
2023/02/27 04:26:10;;;;;;;3.95;2.90;;;-1.20;99.90;;;;;;5081648;28;20203;-81
2023/02/27 04:28:43;;;;;;;3.67;2.80;;;-1.20;99.90;;;;;;5082290;28;20220;-81
2023/02/27 04:31:16;;;;;;;5.78;3.67;;;-1.20;99.90;;;;;;5080919;28;20225;-81
2023/02/27 04:33:48;;;;;;;7.97;3.55;;;-1.20;99.90;;;;;;5081574;28;20215;-80
2023/02/27 04:36:23;;;;;;;5.75;3.50;;;-1.20;99.90;;;;;;5082986;28;20257;-82
2023/02/27 04:38:57;;;;;;;4.13;2.92;;;-1.30;99.90;;;;;;5081087;28;20252;-82
2023/02/27 04:41:32;;;;;;;5.28;3.30;;;-1.30;99.90;;;;;;5069669;28;20219;-82
2023/02/27 04:44:00;;;;;;;11.13;3.20;;;-1.40;99.90;;;;;;5082676;28;20271;-81
2023/02/27 04:46:29;;;;;;;5.32;3.35;;;-1.40;99.90;;;;;;5082534;28;20201;-82
2023/02/27 04:49:00;;;;;;;5.32;3.63;;;-1.40;99.90;;;;;;5082208;28;20288;-81
2023/02/27 04:51:33;;;;;;;7.18;3.05;;;-1.40;99.90;;;;;;5082361;28;20224;-82
2023/02/27 04:54:08;;;;;;;5.20;3.17;;;-1.40;1.00;;;;;;5081080;28;20199;-82
2023/02/27 04:56:40;;;;;;;14.30;3.80;;;-1.50;1.00;;;;;;5081198;28;20224;-81
2023/02/27 04:59:10;;;;;;;6.63;3.53;;;-1.50;1.00;;;;;;5077929;28;20199;-81
2023/02/27 05:04:09;;;;;;;5.95;3.40;;;-1.50;1.00;;;;;;5075578;22;20233;-78
2023/02/27 05:06:39;;;;;;;4.38;3.50;;;-1.50;1.00;;;;;;5066143;28;20193;-79
2023/02/27 05:09:11;;;;;;;4.28;2.90;;;-1.50;1.00;;;;;;5060817;28;20194;-80
2023/02/27 05:11:49;;;;;;;8.35;4.22;;;-1.50;1.00;;;;;;5063853;28;20312;-79
2023/02/27 05:14:20;;;;;;;5.07;3.15;;;-1.60;1.00;;;;;;5039734;28;20209;-79
2023/02/27 05:16:53;;;;;;;4.82;3.22;;;-1.60;1.00;;;;;;5040473;28;20214;-79
2023/02/27 05:19:20;;;;;;;10.35;4.10;;;-1.60;1.00;;;;;;5050235;28;20253;-80
2023/02/27 05:21:55;;;;;;;7.03;3.50;;;-1.50;1.00;;;;;;5050721;28;20660;-80
2023/02/27 05:24:32;;;;;;;7.35;3.47;;;-1.60;1.00;;;;;;5040487;28;20257;-82
2023/02/27 05:27:12;;;;;;;6.50;3.92;;;-1.60;1.00;;;;;;5043647;28;20198;-81
2023/02/27 05:29:46;;;;;;;6.55;3.78;;;-1.60;1.00;;;;;;5041757;28;20199;-80
2023/02/27 05:32:25;;;;;;;9.13;4.55;;;-1.70;1.00;;;;;;5041986;28;20221;-81
2023/02/27 05:34:57;;;;;;;6.32;3.75;;;-1.60;1.00;;;;;;5042581;28;20222;-82
2023/02/27 05:37:28;;;;;;;5.82;3.65;;;-1.60;1.00;;;;;;5042550;28;20213;-81
2023/02/27 05:39:55;;;;;;;4.97;3.35;;;-1.60;1.00;;;;;;5036766;28;20196;-79
2023/02/27 05:42:29;;;;;;;7.70;3.88;;;-1.60;1.00;;;;;;5041725;28;20223;-81
2023/02/27 05:45:00;;;;;;;4.43;3.60;;;-1.60;1.00;;;;;;5042366;28;20201;-80
2023/02/27 05:47:32;;;;;;;6.97;4.40;;;-1.60;1.00;;;;;;5042625;28;20222;-81
2023/02/27 05:50:05;;;;;;;5.05;3.22;;;-1.60;1.00;;;;;;5043509;28;20294;-82
2023/02/27 05:52:33;;;;;;;6.72;4.30;;;-1.60;1.00;;;;;;5043305;28;20230;-82
2023/02/27 05:55:04;;;;;;;7.57;4.30;;;-1.60;1.00;;;;;;5038428;28;20206;-80
2023/02/27 05:57:38;;;;;;;5.88;3.72;;;-1.60;1.00;;;;;;4993350;28;20654;-81
2023/02/27 06:00:11;;;;;;;7.93;3.47;;;-1.60;1.00;;;;;;5037730;28;20205;-79
2023/02/27 06:02:38;;;;;;;4.65;3.55;;;-1.60;1.00;;;;;;5035696;28;20218;-83
2023/02/27 06:05:06;;;;;;;8.90;3.90;;;-1.70;1.00;;;;;;5037445;28;20198;-82
2023/02/27 06:07:33;;;;;;;4.80;4.18;;;-1.70;1.00;;;;;;5038097;28;20221;-81
2023/02/27 06:10:01;;;;;;;7.20;4.28;;;-1.70;1.00;;;;;;5039013;28;20207;-81
2023/02/27 06:12:27;;;;;;;7.72;4.32;;;-1.70;1.00;;;;;;5029256;28;20708;-82
2023/02/27 06:14:55;;;;;;;5.18;3.67;;;-1.70;1.00;;;;;;5032788;28;20204;-81
2023/02/27 06:17:22;;;;;;;7.00;3.72;;;-1.70;1.00;;;;;;5031822;28;20574;-80
2023/02/27 06:19:49;;;;;;;5.13;3.42;;;-1.60;1.00;;;;;;5040782;28;20199;-77
2023/02/27 06:22:16;;;;;;;4.75;4.10;;;-1.60;1.00;;;;;;5035810;28;20222;-81
2023/02/27 06:24:43;;;;;;;9.23;3.28;;;-1.60;1.00;;;;;;5035844;28;20743;-81
2023/02/27 06:27:09;;;;;;;6.00;3.90;;;-1.60;1.00;;;;;;5029462;28;20207;-78
2023/02/27 06:29:36;;;;;;;5.55;3.58;;;-1.60;1.00;;;;;;5032252;28;20202;-82
2023/02/27 06:32:04;;;;;;;9.45;4.10;;;-1.60;1.00;;;;;;5034320;28;20237;-82
2023/02/27 06:34:31;;;;;;;5.88;4.55;;;-1.50;1.00;;;;;;5032506;28;20213;-81
2023/02/27 06:36:58;;;;;;;10.07;4.68;;;-1.60;1.00;;;;;;5033847;28;20198;-81
2023/02/27 06:39:25;;;;;;;6.68;4.05;;;-1.60;1.00;;;;;;5022823;28;20286;-82
2023/02/27 06:41:52;;;;;;;7.65;4.13;;;-1.50;1.00;;;;;;5035831;28;20202;-81
2023/02/27 06:44:19;;;;;;;4.38;3.55;;;-1.50;1.00;;;;;;5034202;28;20221;-81
2023/02/27 06:46:46;;;;;;;6.85;3.85;;;-1.50;1.00;;;;;;5030712;28;20209;-79
2023/02/27 06:49:14;;;;;;;7.68;4.50;;;-1.50;1.00;;;;;;5032122;28;20233;-79
2023/02/27 06:51:41;;;;;;;6.85;4.40;;;-1.50;1.00;;;;;;5030113;28;20593;-80
2023/02/27 06:54:08;;;;;;;6.90;5.00;;;-1.60;1.00;;;;;;5034365;28;20202;-83
2023/02/27 06:56:35;;;;;;;5.45;4.38;;;-1.60;23.90;;;;;;5035470;28;20305;-83
2023/02/27 06:59:02;;;;;;;7.32;3.88;;;-1.50;50.80;;;;;;5034389;28;20281;-81
2023/02/27 07:01:28;;;;;;;5.60;4.20;;;-1.50;43.60;;;;;;5035313;28;20203;-83
2023/02/27 07:03:55;;;;;;;5.45;4.85;;;-1.40;50.40;;;;;;5034488;28;20688;-81
2023/02/27 07:06:23;;;;;;;5.70;4.15;;;-1.30;85.20;;;;;;5036092;28;20289;-85
2023/02/27 07:08:50;;;;;;;6.60;3.95;;;-1.30;71.00;;;;;;5037469;28;20892;-82
2023/02/27 07:11:17;;;;;;;6.88;5.35;;;-1.30;82.60;;;;;;5034648;28;20286;-86
2023/02/27 07:13:44;;;;;;;6.60;4.60;;;-1.20;92.10;;;;;;5035157;28;20223;-83
2023/02/27 07:16:11;;;;;;;7.70;4.82;;;-1.10;93.10;;;;;;5035852;28;20214;-81
2023/02/27 07:18:37;;;;;;;13.07;5.45;;;-1.10;68.20;;;;;;5039913;28;20222;-84
2023/02/27 07:21:04;;;;;;;10.18;4.60;;;-1.00;69.30;;;;;;5030750;28;20208;-83
2023/02/27 07:23:34;;;;;;;5.15;4.47;;;-1.00;52.90;;;;;;5033555;28;20243;-85
2023/02/27 07:26:00;;;;;;;7.53;5.05;;;-0.90;47.20;;;;;;5032702;28;20581;-85
2023/02/27 07:28:27;;;;;;;8.00;4.05;;;-0.80;40.90;;;;;;5032577;28;20314;-84
2023/02/27 07:30:55;;;;;;;5.30;4.32;;;-0.80;7.90;;;;;;5030434;28;20221;-85
2023/02/27 07:33:22;;;;;;;11.55;5.05;;;-0.70;1.00;;;;;;5035584;28;21000;-84
2023/02/27 07:35:49;;;;;;;6.65;4.22;;;-0.60;1.00;;;;;;5033196;28;20223;-84
2023/02/27 07:38:22;;;;;;;8.10;4.47;;;-0.60;1.00;;;;;;5033667;28;20200;-82
2023/02/27 07:40:52;;;;;;;9.02;4.60;;;-0.50;1.00;;;;;;5032783;28;20246;-84
2023/02/27 07:43:19;;;;;;;6.70;4.20;;;-0.40;1.00;;;;;;5032894;28;20286;-85
2023/02/27 07:45:46;;;;;;;8.40;3.80;;;-0.40;1.00;;;;;;5033581;28;20221;-85
2023/02/27 07:48:13;;;;;;;6.38;4.38;;;-0.30;1.00;;;;;;5029535;28;20216;-85
2023/02/27 07:50:39;;;;;;;6.22;4.85;;;-0.30;1.00;;;;;;5029273;28;20378;-86
2023/02/27 07:53:07;;;;;;;8.68;4.00;;;-0.20;1.00;;;;;;5033327;28;20230;-85
2023/02/27 07:55:34;;;;;;;5.72;4.07;;;-0.10;1.00;;;;;;5030740;28;20687;-85
2023/02/27 07:58:02;;;;;;;10.05;4.22;;;-0.10;1.00;;;;;;5029262;28;20828;-85
2023/02/27 08:00:29;;;;;;;8.30;3.97;;;0.00;99.90;;;;;;5030421;28;20520;-85
2023/02/27 08:03:24;;;;;;;8.82;4.38;;;0.10;99.90;;;;;;5028137;28;20786;-85
2023/02/27 08:05:51;;;;;;;5.63;3.80;;;0.10;93.40;;;;;;5033763;28;20203;-85
2023/02/27 08:08:17;;;;;;;7.03;3.88;;;0.20;2.00;;;;;;5034887;28;20773;-85
2023/02/27 08:10:44;;;;;;;6.00;4.00;;;0.20;1.00;;;;;;5034672;28;20294;-85
2023/02/27 08:13:13;;;;;;;7.95;3.38;;;0.30;1.00;;;;;;5039652;28;20224;-85
2023/02/27 08:15:40;;;;;;;5.30;3.78;;;0.40;99.90;;;;;;5037504;28;20211;-85
2023/02/27 08:18:07;;;;;;;11.60;4.22;;;0.50;99.90;;;;;;5041037;28;20284;-84
2023/02/27 08:20:35;;;;;;;7.15;3.67;;;0.60;1.00;;;;;;5044083;28;20244;-84
2023/02/27 08:23:02;;;;;;;7.70;4.40;;;0.60;99.90;;;;;;5041105;28;20228;-84
2023/02/27 08:25:30;;;;;;;7.63;3.70;;;0.70;99.90;;;;;;5046521;28;20233;-85
2023/02/27 08:27:56;;;;;;;13.05;3.95;;;0.80;99.90;;;;;;5041552;28;20211;-86
2023/02/27 08:30:25;;;;;;;6.47;4.00;;;0.90;1.00;;;;;;5036293;28;20206;-81
2023/02/27 08:32:51;;;;;;;6.70;4.97;;;0.90;97.50;;;;;;5038349;28;20376;-83
2023/02/27 08:35:19;;;;;;;4.25;3.80;;;1.10;99.90;;;;;;5037250;28;20287;-84
2023/02/27 08:37:45;;;;;;;9.70;3.97;;;1.30;99.90;;;;;;5037406;28;20209;-83
2023/02/27 08:40:12;;;;;;;7.47;4.45;;;1.50;99.90;;;;;;5037894;28;20655;-83
2023/02/27 08:42:39;;;;;;;8.90;4.95;;;1.70;1.00;;;;;;5039319;28;20260;-83
2023/02/27 08:45:09;;;;;;;11.52;3.97;;;1.70;1.00;;;;;;5037002;28;20256;-81
2023/02/27 08:47:37;;;;;;;6.72;3.63;;;1.80;1.00;;;;;;5034543;28;20296;-84
2023/02/27 08:50:04;;;;;;;10.13;4.90;;;1.80;99.90;;;;;;5038540;28;20317;-84
2023/02/27 08:52:31;;;;;;;7.20;4.53;;;2.00;99.90;;;;;;5033883;28;20251;-83
2023/02/27 08:54:58;;;;;;;9.48;4.78;;;2.00;99.90;;;;;;5036337;28;20905;-83
2023/02/27 08:57:25;;;;;;;11.73;4.22;;;2.20;99.90;;;;;;5030090;28;20289;-83
2023/02/27 08:59:52;;;;;;;6.78;4.25;;;2.50;99.90;;;;;;5035600;28;20642;-83
2023/02/27 09:02:22;;;;;;;7.83;5.03;;;2.80;99.90;;;;;;5025061;28;20241;-83
2023/02/27 09:04:51;;;;;;;6.67;5.13;;;2.90;91.20;;;;;;5029786;28;20473;-83
2023/02/27 09:07:18;;;;;;;6.13;4.43;;;3.20;63.80;;;;;;5035490;28;20445;-83
2023/02/27 09:09:45;;;;;;;4.73;3.77;;;3.50;29.30;;;;;;5037819;28;21240;-82
2023/02/27 09:12:12;;;;;;;5.90;3.83;;;4.00;1.00;;;;;;5032939;28;21435;-82
2023/02/27 09:14:39;;;;;;;5.80;3.87;;;4.90;1.00;;;;;;5039528;28;20520;-83
2023/02/27 09:17:06;;;;;;;4.40;3.33;;;5.30;1.00;;;;;;5041964;28;20453;-83
2023/02/27 09:19:35;;;;;;;5.70;3.83;;;5.80;1.00;;;;;;5037039;28;20472;-85
2023/02/27 09:22:03;;;;;;;5.23;3.40;;;6.70;1.00;;;;;;5040381;28;20483;-82
2023/02/27 09:24:30;;;;;;;4.13;2.70;;;6.90;1.00;;;;;;5042569;28;20482;-84
2023/02/27 09:26:57;;;;;;;5.00;2.87;;;7.30;1.00;;;;;;5043199;28;20529;-83
2023/02/27 09:29:26;;;;;;;4.20;2.60;;;7.50;1.00;;;;;;5041653;28;20511;-84
2023/02/27 09:31:53;;;;;;;4.20;2.87;;;7.60;1.00;;;;;;5042123;28;20459;-84
2023/02/27 09:34:20;;;;;;;10.70;2.57;;;7.60;1.00;;;;;;5040523;28;20571;-84
2023/02/27 09:36:46;;;;;;;6.47;2.60;;;8.10;1.00;;;;;;5041290;28;20455;-84
2023/02/27 09:39:15;;;;;;;4.60;3.13;;;9.30;1.00;;;;;;5038278;28;20499;-84
2023/02/27 09:41:55;;;;;;;3.67;2.23;;;9.50;1.00;;;;;;5033280;28;20449;-84
2023/02/27 09:44:31;;;;;;;4.53;2.33;;;9.30;99.90;;;;;;5024779;28;20532;-84
2023/02/27 09:46:58;;;;;;;6.87;2.60;;;9.40;99.90;;;;;;5041475;28;20445;-84
2023/02/27 09:49:32;;;;;;;6.07;2.53;;;9.70;99.90;;;;;;5042222;28;20587;-84
2023/02/27 09:51:59;;;;;;;5.40;2.07;;;10.00;99.90;;;;;;5042052;28;20460;-84
2023/02/27 09:54:32;;;;;;;4.20;2.20;;;11.10;99.90;;;;;;5041237;28;20476;-84
2023/02/27 09:57:02;;;;;;;5.83;2.13;;;12.40;99.90;;;;;;5041211;28;20486;-85
2023/02/27 09:59:36;;;;;;;4.77;3.07;;;11.80;99.90;;;;;;5039547;28;20456;-84
2023/02/27 10:02:16;;;;;;;8.23;2.80;;;12.40;99.90;;;;;;5035745;28;20490;-86
2023/02/27 10:10:07;;;;;;;3.50;1.80;;;11.60;99.90;;;;;;5466159;22;20525;-82
2023/02/27 10:12:50;;;;;;;4.37;2.20;;;10.60;99.90;;;;;;5026518;28;20478;-84
2023/02/27 10:15:24;;;;;;;5.60;3.20;;;8.90;99.90;;;;;;5012708;28;20961;-84
2023/02/27 10:17:56;;;;;;;6.00;2.50;;;8.90;99.90;;;;;;5025475;28;20287;-84
2023/02/27 10:20:27;;;;;;;11.63;3.77;;;8.80;99.90;;;;;;5039791;28;20462;-84
2023/02/27 10:22:57;;;;;;;4.07;2.30;;;8.90;99.90;;;;;;5040234;28;20516;-83
2023/02/27 10:25:26;;;;;;;6.63;2.73;;;9.00;99.90;;;;;;5042415;28;20452;-83
2023/02/27 10:27:56;;;;;;;6.03;3.67;;;8.90;99.90;;;;;;5031543;28;20446;-83
2023/02/27 10:30:25;;;;;;;7.57;3.60;;;9.90;99.90;;;;;;5025406;28;20477;-83
2023/02/27 10:32:57;;;;;;;7.77;4.40;;;10.70;99.90;;;;;;5030304;28;20449;-83
2023/02/27 10:35:30;;;;;;;7.57;3.90;;;9.70;99.90;;;;;;5026060;28;20438;-83
2023/02/27 10:38:01;;;;;;;7.40;4.17;;;10.00;99.90;;;;;;5021060;28;20454;-83
2023/02/27 10:40:30;;;;;;;7.73;4.23;;;10.00;99.90;;;;;;5033158;28;20525;-83
2023/02/27 10:42:59;;;;;;;6.97;4.17;;;10.10;99.90;;;;;;5040568;28;20466;-82
2023/02/27 10:45:27;;;;;;;6.33;3.50;;;11.40;99.90;;;;;;5051125;28;20461;-82
2023/02/27 10:47:54;;;;;;;9.47;3.63;;;11.80;99.90;;;;;;5040453;28;20524;-83
2023/02/27 10:50:26;;;;;;;6.67;2.90;;;12.30;99.90;;;;;;5033304;28;20507;-81
2023/02/27 10:52:57;;;;;;;8.87;2.90;;;13.10;99.90;;;;;;5040708;28;20511;-83
2023/02/27 10:55:26;;;;;;;5.30;1.90;;;13.00;99.90;;;;;;5042690;28;20452;-83
2023/02/27 10:57:56;;;;;;;3.70;1.90;;;12.60;99.90;;;;;;5023545;28;20450;-83
2023/02/27 11:00:30;;;;;;;4.03;1.63;;;13.90;99.90;;;;;;5034392;28;20486;-84
2023/02/27 11:02:58;;;;;;;4.47;1.50;;;15.70;99.90;;;;;;5044719;28;20504;-82
2023/02/27 11:05:27;;;;;;;4.53;1.50;;;14.50;99.90;;;;;;5032134;28;20529;-83
2023/02/27 11:07:55;;;;;;;6.83;2.03;;;13.70;99.90;;;;;;5038762;28;20966;-82
2023/02/27 11:10:24;;;;;;;5.10;1.70;;;12.60;99.90;;;;;;5031852;28;20495;-83
2023/02/27 11:13:04;;;;;;;5.00;1.97;;;12.70;99.90;;;;;;5027724;28;20464;-83
2023/02/27 11:15:33;;;;;;;4.90;2.33;;;13.30;99.90;;;;;;5027814;28;20451;-82
2023/02/27 11:18:20;;;;;;;3.03;1.33;;;11.90;99.90;;;;;;5043907;28;20547;-81
2023/02/27 11:20:49;;;;;;;5.50;1.93;;;10.50;99.90;;;;;;5020027;28;20477;-83
2023/02/27 11:23:19;;;;;;;3.67;1.60;;;12.00;99.90;;;;;;5023320;28;20463;-84
2023/02/27 11:25:46;;;;;;;3.97;1.80;;;12.70;99.90;;;;;;5044880;28;20870;-84
2023/02/27 11:28:22;;;;;;;4.27;1.73;;;11.60;99.90;;;;;;5046593;28;20446;-84
2023/02/27 11:30:57;;;;;;;4.47;1.87;;;11.40;99.90;;;;;;5041343;28;20493;-83
2023/02/27 11:33:26;;;;;;;2.40;1.40;;;14.30;99.90;;;;;;5047911;28;20464;-84
2023/02/27 11:35:54;;;;;;;3.50;2.17;;;15.30;99.90;;;;;;5037232;28;20461;-83
2023/02/27 11:38:24;;;;;;;3.53;2.33;;;16.50;99.90;;;;;;5037901;28;20857;-83
2023/02/27 11:40:54;;;;;;;3.70;1.60;;;17.30;99.90;;;;;;5031373;28;20780;-84
2023/02/27 11:43:25;;;;;;;2.87;2.00;;;18.00;99.90;;;;;;5048011;28;20481;-83
2023/02/27 11:45:56;;;;;;;3.00;1.70;;;18.10;99.90;;;;;;5047959;28;20454;-83
2023/02/27 11:48:27;;;;;;;3.43;2.20;;;18.40;99.90;;;;;;5045575;28;20574;-85
2023/02/27 11:51:22;;;;;;;3.27;1.77;;;19.20;99.90;;;;;;5046168;28;20467;-83
2023/02/27 11:54:17;;;;;;;8.13;2.53;;;19.60;99.90;;;;;;5028725;28;20463;-83
2023/02/27 11:56:48;;;;;;;3.27;1.87;;;19.80;99.90;;;;;;5025905;28;20536;-83
2023/02/27 11:59:27;;;;;;;3.30;1.70;;;19.80;99.90;;;;;;5036511;28;20474;-82
2023/02/27 12:01:59;;;;;;;3.40;1.27;;;19.60;99.90;;;;;;5039615;28;20452;-82
2023/02/27 12:04:33;;;;;;;4.27;2.00;;;20.10;99.90;;;;;;5031946;28;20440;-83
2023/02/27 12:07:06;;;;;;;4.60;1.80;;;20.10;99.90;;;;;;5026913;28;20444;-83
2023/02/27 12:09:39;;;;;;;3.57;1.67;;;19.80;99.90;;;;;;5020119;28;20514;-84
2023/02/27 12:12:15;;;;;;;2.53;1.43;;;20.30;99.90;;;;;;5041242;28;20458;-83
2023/02/27 12:14:48;;;;;;;3.90;1.57;;;20.70;99.90;;;;;;5037423;28;20442;-81
2023/02/27 12:17:22;;;;;;;4.90;1.60;;;21.10;99.90;;;;;;5036483;28;20939;-82
2023/02/27 12:20:00;;;;;;;4.33;1.90;;;21.00;99.90;;;;;;5034047;28;20476;-84
2023/02/27 12:22:32;;;;;;;3.30;1.33;;;22.70;99.90;;;;;;5036562;28;20454;-84
2023/02/27 12:25:02;;;;;;;3.50;1.77;;;21.30;99.90;;;;;;5020113;28;20818;-85
2023/02/27 12:27:37;;;;;;;4.83;1.70;;;20.50;99.90;;;;;;5024048;28;20474;-86
2023/02/27 12:30:17;;;;;;;3.07;1.80;;;21.10;99.90;;;;;;5031112;28;20997;-85
2023/02/27 12:32:49;;;;;;;2.33;1.37;;;19.40;99.90;;;;;;5036363;28;20529;-85
2023/02/27 12:35:20;;;;;;;4.00;2.00;;;17.30;99.90;;;;;;5025720;28;20919;-84
2023/02/27 12:37:47;;;;;;;4.10;1.70;;;15.70;99.90;;;;;;5023791;28;20450;-85
2023/02/27 12:40:16;;;;;;;4.40;1.90;;;14.00;99.90;;;;;;5033592;28;20543;-84
2023/02/27 12:43:05;;;;;;;4.80;1.67;;;14.10;99.90;;;;;;5026490;28;20543;-84
2023/02/27 12:45:54;;;;;;;3.53;1.63;;;14.30;99.90;;;;;;5027124;28;20453;-84
2023/02/27 12:48:35;;;;;;;4.00;1.70;;;15.40;99.90;;;;;;5039066;28;20437;-84
2023/02/27 12:51:16;;;;;;;6.57;1.43;;;17.30;99.90;;;;;;5039873;28;20968;-84
2023/02/27 12:54:13;;;;;;;3.03;2.03;;;16.60;99.90;;;;;;5039788;28;20445;-86
2023/02/27 12:56:50;;;;;;;8.37;2.00;;;16.50;99.90;;;;;;5034811;28;20955;-85
2023/02/27 12:59:39;;;;;;;3.23;1.80;;;17.70;99.90;;;;;;5039412;28;20470;-85
2023/02/27 13:02:35;;;;;;;3.93;2.00;;;18.50;99.90;;;;;;5031021;28;20829;-85
2023/02/27 13:05:14;;;;;;;4.90;1.60;;;18.60;99.90;;;;;;5029541;28;20457;-85
2023/02/27 13:07:51;;;;;;;3.70;2.20;;;18.00;99.90;;;;;;5024752;28;20458;-85
2023/02/27 13:10:22;;;;;;;5.73;2.80;;;18.50;99.90;;;;;;5029968;28;20515;-85
2023/02/27 13:12:54;;;;;;;4.67;1.93;;;18.10;99.90;;;;;;5031416;28;20547;-85
2023/02/27 13:15:27;;;;;;;4.13;2.10;;;18.80;99.90;;;;;;5037806;28;20478;-84
2023/02/27 13:17:59;;;;;;;4.00;3.03;;;15.60;99.90;;;;;;5030153;28;20450;-85
2023/02/27 13:20:32;;;;;;;5.60;2.27;;;13.50;99.90;;;;;;5024198;28;20477;-85
2023/02/27 13:23:06;;;;;;;4.80;2.30;;;13.00;99.90;;;;;;5037087;28;20455;-83